sensor_id;sensor_type;location;lat;lon;timestamp;P1;durP1;ratioP1;P2;durP2;ratioP2
59756;SDS011;45631;51.962;5.974;2024-01-15T00:01:31;5.28;;;1.10;;
59756;SDS011;45631;51.962;5.974;2024-01-15T00:03:59;4.57;;;1.15;;
59756;SDS011;45631;51.962;5.974;2024-01-15T00:06:29;6.63;;;1.27;;
59756;SDS011;45631;51.962;5.974;2024-01-15T00:08:59;6.13;;;1.20;;
59756;SDS011;45631;51.962;5.974;2024-01-15T00:11:27;4.65;;;1.25;;
59756;SDS011;45631;51.962;5.974;2024-01-15T00:13:56;7.53;;;1.38;;
59756;SDS011;45631;51.962;5.974;2024-01-15T00:16:24;4.35;;;1.10;;
59756;SDS011;45631;51.962;5.974;2024-01-15T00:18:52;3.50;;;0.98;;
59756;SDS011;45631;51.962;5.974;2024-01-15T00:21:20;3.72;;;0.90;;
59756;SDS011;45631;51.962;5.974;2024-01-15T00:23:51;3.15;;;0.95;;
59756;SDS011;45631;51.962;5.974;2024-01-15T00:26:19;4.65;;;0.90;;
59756;SDS011;45631;51.962;5.974;2024-01-15T00:28:47;6.28;;;1.13;;
59756;SDS011;45631;51.962;5.974;2024-01-15T00:31:16;9.18;;;1.20;;
59756;SDS011;45631;51.962;5.974;2024-01-15T00:33:44;4.43;;;0.90;;
59756;SDS011;45631;51.962;5.974;2024-01-15T00:36:12;8.13;;;1.35;;
59756;SDS011;45631;51.962;5.974;2024-01-15T00:38:41;5.93;;;1.30;;
59756;SDS011;45631;51.962;5.974;2024-01-15T00:41:11;5.47;;;1.00;;
59756;SDS011;45631;51.962;5.974;2024-01-15T00:43:39;4.93;;;0.85;;
59756;SDS011;45631;51.962;5.974;2024-01-15T00:46:07;3.08;;;0.80;;
59756;SDS011;45631;51.962;5.974;2024-01-15T00:48:36;7.28;;;1.05;;
59756;SDS011;45631;51.962;5.974;2024-01-15T00:51:05;6.70;;;1.08;;
59756;SDS011;45631;51.962;5.974;2024-01-15T00:53:33;10.85;;;1.85;;
59756;SDS011;45631;51.962;5.974;2024-01-15T00:56:01;5.47;;;1.08;;
59756;SDS011;45631;51.962;5.974;2024-01-15T00:58:31;7.40;;;1.13;;
59756;SDS011;45631;51.962;5.974;2024-01-15T01:00:59;8.30;;;1.05;;
59756;SDS011;45631;51.962;5.974;2024-01-15T01:03:27;8.52;;;1.52;;
59756;SDS011;45631;51.962;5.974;2024-01-15T01:05:56;4.82;;;0.82;;
59756;SDS011;45631;51.962;5.974;2024-01-15T01:08:24;5.18;;;1.00;;
59756;SDS011;45631;51.962;5.974;2024-01-15T01:10:52;6.93;;;1.30;;
59756;SDS011;45631;51.962;5.974;2024-01-15T01:13:21;4.97;;;0.98;;
59756;SDS011;45631;51.962;5.974;2024-01-15T01:15:51;5.93;;;1.05;;
59756;SDS011;45631;51.962;5.974;2024-01-15T01:18:19;7.38;;;1.13;;
59756;SDS011;45631;51.962;5.974;2024-01-15T01:20:47;7.72;;;1.83;;
59756;SDS011;45631;51.962;5.974;2024-01-15T01:23:15;4.68;;;1.15;;
59756;SDS011;45631;51.962;5.974;2024-01-15T01:25:43;3.72;;;0.82;;
59756;SDS011;45631;51.962;5.974;2024-01-15T01:28:11;4.38;;;1.30;;
59756;SDS011;45631;51.962;5.974;2024-01-15T01:30:39;6.43;;;1.10;;
59756;SDS011;45631;51.962;5.974;2024-01-15T01:33:09;6.10;;;1.27;;
59756;SDS011;45631;51.962;5.974;2024-01-15T01:35:38;9.65;;;2.05;;
59756;SDS011;45631;51.962;5.974;2024-01-15T01:38:06;9.48;;;1.90;;
59756;SDS011;45631;51.962;5.974;2024-01-15T01:40:34;5.38;;;1.30;;
59756;SDS011;45631;51.962;5.974;2024-01-15T01:43:02;6.38;;;1.20;;
59756;SDS011;45631;51.962;5.974;2024-01-15T01:45:30;4.78;;;1.00;;
59756;SDS011;45631;51.962;5.974;2024-01-15T01:47:59;10.50;;;1.33;;
59756;SDS011;45631;51.962;5.974;2024-01-15T01:50:30;9.40;;;1.20;;
59756;SDS011;45631;51.962;5.974;2024-01-15T01:52:59;7.35;;;1.17;;
59756;SDS011;45631;51.962;5.974;2024-01-15T01:55:30;6.75;;;1.35;;
59756;SDS011;45631;51.962;5.974;2024-01-15T01:58:00;10.52;;;1.45;;
59756;SDS011;45631;51.962;5.974;2024-01-15T02:00:29;10.23;;;1.73;;
59756;SDS011;45631;51.962;5.974;2024-01-15T02:02:58;5.85;;;1.17;;
59756;SDS011;45631;51.962;5.974;2024-01-15T02:05:26;7.60;;;1.70;;
59756;SDS011;45631;51.962;5.974;2024-01-15T02:07:56;9.00;;;1.52;;
59756;SDS011;45631;51.962;5.974;2024-01-15T02:10:24;7.22;;;1.38;;
59756;SDS011;45631;51.962;5.974;2024-01-15T02:12:53;8.38;;;2.33;;
59756;SDS011;45631;51.962;5.974;2024-01-15T02:15:21;6.68;;;1.25;;
59756;SDS011;45631;51.962;5.974;2024-01-15T02:17:58;8.35;;;2.00;;
59756;SDS011;45631;51.962;5.974;2024-01-15T02:20:28;8.43;;;1.73;;
59756;SDS011;45631;51.962;5.974;2024-01-15T02:23:10;8.38;;;1.58;;
59756;SDS011;45631;51.962;5.974;2024-01-15T02:25:40;4.80;;;1.40;;
59756;SDS011;45631;51.962;5.974;2024-01-15T02:28:10;10.70;;;1.88;;
59756;SDS011;45631;51.962;5.974;2024-01-15T02:30:39;9.60;;;1.23;;
59756;SDS011;45631;51.962;5.974;2024-01-15T02:33:09;5.95;;;1.20;;
59756;SDS011;45631;51.962;5.974;2024-01-15T02:35:38;7.90;;;1.27;;
59756;SDS011;45631;51.962;5.974;2024-01-15T02:38:07;13.40;;;2.85;;
59756;SDS011;45631;51.962;5.974;2024-01-15T02:40:37;13.40;;;1.95;;
59756;SDS011;45631;51.962;5.974;2024-01-15T02:43:06;6.38;;;1.20;;
59756;SDS011;45631;51.962;5.974;2024-01-15T02:45:34;12.93;;;1.48;;
59756;SDS011;45631;51.962;5.974;2024-01-15T02:48:02;8.10;;;1.23;;
59756;SDS011;45631;51.962;5.974;2024-01-15T02:50:30;9.68;;;1.35;;
59756;SDS011;45631;51.962;5.974;2024-01-15T02:52:58;5.57;;;1.13;;
59756;SDS011;45631;51.962;5.974;2024-01-15T02:55:27;7.70;;;1.02;;
59756;SDS011;45631;51.962;5.974;2024-01-15T02:57:58;7.25;;;1.30;;
59756;SDS011;45631;51.962;5.974;2024-01-15T03:00:27;4.95;;;1.23;;
59756;SDS011;45631;51.962;5.974;2024-01-15T03:02:55;8.02;;;2.10;;
59756;SDS011;45631;51.962;5.974;2024-01-15T03:05:24;5.57;;;1.20;;
59756;SDS011;45631;51.962;5.974;2024-01-15T03:07:52;9.15;;;1.00;;
59756;SDS011;45631;51.962;5.974;2024-01-15T03:10:22;9.30;;;1.30;;
59756;SDS011;45631;51.962;5.974;2024-01-15T03:12:50;7.82;;;1.20;;
59756;SDS011;45631;51.962;5.974;2024-01-15T03:15:20;6.53;;;1.20;;
59756;SDS011;45631;51.962;5.974;2024-01-15T03:17:48;8.65;;;1.40;;
59756;SDS011;45631;51.962;5.974;2024-01-15T03:20:16;10.30;;;1.50;;
59756;SDS011;45631;51.962;5.974;2024-01-15T03:22:44;7.53;;;1.40;;
59756;SDS011;45631;51.962;5.974;2024-01-15T03:25:12;10.73;;;1.50;;
59756;SDS011;45631;51.962;5.974;2024-01-15T03:27:41;7.90;;;1.30;;
59756;SDS011;45631;51.962;5.974;2024-01-15T03:30:09;8.90;;;1.50;;
59756;SDS011;45631;51.962;5.974;2024-01-15T03:32:40;9.02;;;1.27;;
59756;SDS011;45631;51.962;5.974;2024-01-15T03:35:08;6.75;;;1.15;;
59756;SDS011;45631;51.962;5.974;2024-01-15T03:37:36;7.70;;;1.25;;
59756;SDS011;45631;51.962;5.974;2024-01-15T03:40:05;10.30;;;2.25;;
59756;SDS011;45631;51.962;5.974;2024-01-15T03:42:34;7.68;;;1.10;;
59756;SDS011;45631;51.962;5.974;2024-01-15T03:45:03;7.60;;;1.13;;
59756;SDS011;45631;51.962;5.974;2024-01-15T03:47:32;10.35;;;1.67;;
59756;SDS011;45631;51.962;5.974;2024-01-15T03:50:05;8.90;;;1.57;;
59756;SDS011;45631;51.962;5.974;2024-01-15T03:52:36;10.60;;;1.15;;
59756;SDS011;45631;51.962;5.974;2024-01-15T03:55:04;9.43;;;1.67;;
59756;SDS011;45631;51.962;5.974;2024-01-15T03:57:33;5.07;;;1.00;;
59756;SDS011;45631;51.962;5.974;2024-01-15T04:00:01;11.30;;;1.25;;
59756;SDS011;45631;51.962;5.974;2024-01-15T04:02:31;8.13;;;1.42;;
59756;SDS011;45631;51.962;5.974;2024-01-15T04:04:59;7.10;;;1.10;;
59756;SDS011;45631;51.962;5.974;2024-01-15T04:07:28;7.57;;;1.75;;
59756;SDS011;45631;51.962;5.974;2024-01-15T04:09:57;6.28;;;1.13;;
59756;SDS011;45631;51.962;5.974;2024-01-15T04:12:26;10.38;;;1.42;;
59756;SDS011;45631;51.962;5.974;2024-01-15T04:14:54;8.63;;;1.25;;
59756;SDS011;45631;51.962;5.974;2024-01-15T04:17:22;14.23;;;1.70;;
59756;SDS011;45631;51.962;5.974;2024-01-15T04:19:50;5.28;;;1.02;;
59756;SDS011;45631;51.962;5.974;2024-01-15T04:22:19;5.70;;;0.93;;
59756;SDS011;45631;51.962;5.974;2024-01-15T04:24:48;10.80;;;1.83;;
59756;SDS011;45631;51.962;5.974;2024-01-15T04:27:16;7.90;;;1.58;;
59756;SDS011;45631;51.962;5.974;2024-01-15T04:29:44;9.23;;;1.48;;
59756;SDS011;45631;51.962;5.974;2024-01-15T04:32:13;8.73;;;1.30;;
59756;SDS011;45631;51.962;5.974;2024-01-15T04:34:43;10.45;;;1.98;;
59756;SDS011;45631;51.962;5.974;2024-01-15T04:37:13;9.20;;;1.50;;
59756;SDS011;45631;51.962;5.974;2024-01-15T04:39:41;9.63;;;1.45;;
59756;SDS011;45631;51.962;5.974;2024-01-15T04:42:11;10.15;;;1.30;;
59756;SDS011;45631;51.962;5.974;2024-01-15T04:44:39;9.10;;;1.95;;
59756;SDS011;45631;51.962;5.974;2024-01-15T04:47:07;8.30;;;1.10;;
59756;SDS011;45631;51.962;5.974;2024-01-15T04:49:35;6.13;;;1.20;;
59756;SDS011;45631;51.962;5.974;2024-01-15T04:52:04;8.35;;;1.20;;
59756;SDS011;45631;51.962;5.974;2024-01-15T04:54:32;7.53;;;1.17;;
59756;SDS011;45631;51.962;5.974;2024-01-15T04:57:00;8.23;;;1.42;;
59756;SDS011;45631;51.962;5.974;2024-01-15T04:59:33;8.25;;;1.38;;
59756;SDS011;45631;51.962;5.974;2024-01-15T05:02:01;8.27;;;2.17;;
59756;SDS011;45631;51.962;5.974;2024-01-15T05:04:29;5.70;;;1.40;;
59756;SDS011;45631;51.962;5.974;2024-01-15T05:06:57;6.43;;;1.25;;
59756;SDS011;45631;51.962;5.974;2024-01-15T05:09:25;8.50;;;1.38;;
59756;SDS011;45631;51.962;5.974;2024-01-15T05:11:58;7.85;;;1.30;;
59756;SDS011;45631;51.962;5.974;2024-01-15T05:14:27;6.97;;;1.20;;
59756;SDS011;45631;51.962;5.974;2024-01-15T05:16:56;6.75;;;1.35;;
59756;SDS011;45631;51.962;5.974;2024-01-15T05:19:26;8.02;;;1.52;;
59756;SDS011;45631;51.962;5.974;2024-01-15T05:21:55;6.88;;;1.33;;
59756;SDS011;45631;51.962;5.974;2024-01-15T05:24:23;12.07;;;1.50;;
59756;SDS011;45631;51.962;5.974;2024-01-15T05:26:53;10.30;;;1.95;;
59756;SDS011;45631;51.962;5.974;2024-01-15T05:29:21;7.78;;;1.63;;
59756;SDS011;45631;51.962;5.974;2024-01-15T05:31:49;9.50;;;1.83;;
59756;SDS011;45631;51.962;5.974;2024-01-15T05:34:19;10.60;;;2.10;;
59756;SDS011;45631;51.962;5.974;2024-01-15T05:36:47;10.98;;;1.63;;
59756;SDS011;45631;51.962;5.974;2024-01-15T05:39:15;8.13;;;2.10;;
59756;SDS011;45631;51.962;5.974;2024-01-15T05:41:49;13.27;;;2.85;;
59756;SDS011;45631;51.962;5.974;2024-01-15T05:44:17;10.45;;;2.38;;
59756;SDS011;45631;51.962;5.974;2024-01-15T05:46:45;8.70;;;2.22;;
59756;SDS011;45631;51.962;5.974;2024-01-15T05:49:13;8.88;;;2.50;;
59756;SDS011;45631;51.962;5.974;2024-01-15T05:51:43;12.60;;;2.92;;
59756;SDS011;45631;51.962;5.974;2024-01-15T05:54:11;9.50;;;2.42;;
59756;SDS011;45631;51.962;5.974;2024-01-15T05:56:42;5.82;;;1.95;;
59756;SDS011;45631;51.962;5.974;2024-01-15T05:59:10;6.40;;;2.13;;
59756;SDS011;45631;51.962;5.974;2024-01-15T06:01:41;6.22;;;2.10;;
59756;SDS011;45631;51.962;5.974;2024-01-15T06:04:09;7.50;;;2.45;;
59756;SDS011;45631;51.962;5.974;2024-01-15T06:06:38;4.25;;;1.88;;
59756;SDS011;45631;51.962;5.974;2024-01-15T06:09:07;7.53;;;1.85;;
59756;SDS011;45631;51.962;5.974;2024-01-15T06:11:36;9.00;;;2.13;;
59756;SDS011;45631;51.962;5.974;2024-01-15T06:14:04;8.90;;;2.45;;
59756;SDS011;45631;51.962;5.974;2024-01-15T06:16:32;6.22;;;2.45;;
59756;SDS011;45631;51.962;5.974;2024-01-15T06:19:00;5.55;;;2.08;;
59756;SDS011;45631;51.962;5.974;2024-01-15T06:21:28;3.97;;;1.90;;
59756;SDS011;45631;51.962;5.974;2024-01-15T06:23:57;7.05;;;1.90;;
59756;SDS011;45631;51.962;5.974;2024-01-15T06:26:26;5.28;;;1.92;;
59756;SDS011;45631;51.962;5.974;2024-01-15T06:28:54;7.63;;;1.70;;
59756;SDS011;45631;51.962;5.974;2024-01-15T06:31:22;6.90;;;1.60;;
59756;SDS011;45631;51.962;5.974;2024-01-15T06:33:51;5.88;;;1.65;;
59756;SDS011;45631;51.962;5.974;2024-01-15T06:36:19;4.47;;;1.40;;
59756;SDS011;45631;51.962;5.974;2024-01-15T06:38:48;5.03;;;1.80;;
59756;SDS011;45631;51.962;5.974;2024-01-15T06:41:16;8.18;;;2.05;;
59756;SDS011;45631;51.962;5.974;2024-01-15T06:43:45;9.25;;;1.75;;
59756;SDS011;45631;51.962;5.974;2024-01-15T06:46:19;5.20;;;2.00;;
59756;SDS011;45631;51.962;5.974;2024-01-15T06:48:47;7.78;;;1.83;;
59756;SDS011;45631;51.962;5.974;2024-01-15T06:51:16;7.05;;;2.50;;
59756;SDS011;45631;51.962;5.974;2024-01-15T06:53:44;8.00;;;2.40;;
59756;SDS011;45631;51.962;5.974;2024-01-15T06:56:12;6.60;;;2.45;;
59756;SDS011;45631;51.962;5.974;2024-01-15T06:58:43;6.80;;;2.45;;
59756;SDS011;45631;51.962;5.974;2024-01-15T07:01:13;7.65;;;2.40;;
59756;SDS011;45631;51.962;5.974;2024-01-15T07:03:41;6.63;;;2.65;;
59756;SDS011;45631;51.962;5.974;2024-01-15T07:06:10;7.63;;;3.00;;
59756;SDS011;45631;51.962;5.974;2024-01-15T07:08:39;8.50;;;3.42;;
59756;SDS011;45631;51.962;5.974;2024-01-15T07:11:07;7.43;;;3.30;;
59756;SDS011;45631;51.962;5.974;2024-01-15T07:13:36;8.02;;;3.75;;
59756;SDS011;45631;51.962;5.974;2024-01-15T07:16:04;8.18;;;4.03;;
59756;SDS011;45631;51.962;5.974;2024-01-15T07:18:35;11.65;;;4.60;;
59756;SDS011;45631;51.962;5.974;2024-01-15T07:21:06;10.27;;;4.40;;
59756;SDS011;45631;51.962;5.974;2024-01-15T07:23:34;11.80;;;5.07;;
59756;SDS011;45631;51.962;5.974;2024-01-15T07:26:03;10.13;;;5.57;;
59756;SDS011;45631;51.962;5.974;2024-01-15T07:28:31;11.95;;;5.88;;
59756;SDS011;45631;51.962;5.974;2024-01-15T07:31:00;9.40;;;5.95;;
59756;SDS011;45631;51.962;5.974;2024-01-15T07:33:29;10.70;;;6.50;;
59756;SDS011;45631;51.962;5.974;2024-01-15T07:35:59;10.27;;;6.63;;
59756;SDS011;45631;51.962;5.974;2024-01-15T07:38:29;13.20;;;7.30;;
59756;SDS011;45631;51.962;5.974;2024-01-15T07:40:57;11.65;;;7.57;;
59756;SDS011;45631;51.962;5.974;2024-01-15T07:43:25;12.15;;;7.30;;
59756;SDS011;45631;51.962;5.974;2024-01-15T07:45:54;12.35;;;7.38;;
59756;SDS011;45631;51.962;5.974;2024-01-15T07:48:22;12.32;;;7.28;;
59756;SDS011;45631;51.962;5.974;2024-01-15T07:50:54;12.13;;;7.32;;
59756;SDS011;45631;51.962;5.974;2024-01-15T07:53:23;11.77;;;6.88;;
59756;SDS011;45631;51.962;5.974;2024-01-15T07:55:51;10.13;;;6.55;;
59756;SDS011;45631;51.962;5.974;2024-01-15T07:58:19;11.50;;;7.10;;
59756;SDS011;45631;51.962;5.974;2024-01-15T08:00:47;10.95;;;7.07;;
59756;SDS011;45631;51.962;5.974;2024-01-15T08:03:16;11.70;;;7.72;;
59756;SDS011;45631;51.962;5.974;2024-01-15T08:05:44;10.98;;;6.80;;
59756;SDS011;45631;51.962;5.974;2024-01-15T08:08:13;10.18;;;6.25;;
59756;SDS011;45631;51.962;5.974;2024-01-15T08:10:43;10.27;;;5.65;;
59756;SDS011;45631;51.962;5.974;2024-01-15T08:13:11;10.40;;;5.93;;
59756;SDS011;45631;51.962;5.974;2024-01-15T08:15:40;9.65;;;5.28;;
59756;SDS011;45631;51.962;5.974;2024-01-15T08:18:08;9.45;;;5.47;;
59756;SDS011;45631;51.962;5.974;2024-01-15T08:20:39;7.32;;;4.40;;
59756;SDS011;45631;51.962;5.974;2024-01-15T08:23:07;8.10;;;4.65;;
59756;SDS011;45631;51.962;5.974;2024-01-15T08:25:36;8.25;;;4.32;;
59756;SDS011;45631;51.962;5.974;2024-01-15T08:28:05;6.90;;;3.42;;
59756;SDS011;45631;51.962;5.974;2024-01-15T08:30:34;5.85;;;3.30;;
59756;SDS011;45631;51.962;5.974;2024-01-15T08:33:03;7.72;;;3.65;;
59756;SDS011;45631;51.962;5.974;2024-01-15T08:35:46;6.93;;;3.53;;
59756;SDS011;45631;51.962;5.974;2024-01-15T08:38:14;6.53;;;3.40;;
59756;SDS011;45631;51.962;5.974;2024-01-15T08:40:42;6.80;;;3.15;;
59756;SDS011;45631;51.962;5.974;2024-01-15T08:43:12;7.72;;;3.15;;
59756;SDS011;45631;51.962;5.974;2024-01-15T08:45:40;7.60;;;3.53;;
59756;SDS011;45631;51.962;5.974;2024-01-15T08:48:08;6.25;;;3.40;;
59756;SDS011;45631;51.962;5.974;2024-01-15T08:50:37;6.13;;;2.95;;
59756;SDS011;45631;51.962;5.974;2024-01-15T08:53:05;7.53;;;3.25;;
59756;SDS011;45631;51.962;5.974;2024-01-15T08:55:33;8.25;;;3.10;;
59756;SDS011;45631;51.962;5.974;2024-01-15T08:58:01;5.45;;;2.90;;
59756;SDS011;45631;51.962;5.974;2024-01-15T09:00:31;8.73;;;2.70;;
59756;SDS011;45631;51.962;5.974;2024-01-15T09:02:59;6.72;;;3.00;;
59756;SDS011;45631;51.962;5.974;2024-01-15T09:05:30;6.05;;;2.80;;
59756;SDS011;45631;51.962;5.974;2024-01-15T09:07:59;8.52;;;3.00;;
59756;SDS011;45631;51.962;5.974;2024-01-15T09:10:27;7.75;;;4.07;;
59756;SDS011;45631;51.962;5.974;2024-01-15T09:12:58;6.80;;;2.90;;
59756;SDS011;45631;51.962;5.974;2024-01-15T09:15:27;7.35;;;3.80;;
59756;SDS011;45631;51.962;5.974;2024-01-15T09:17:56;7.70;;;3.15;;
59756;SDS011;45631;51.962;5.974;2024-01-15T09:20:28;8.00;;;3.10;;
59756;SDS011;45631;51.962;5.974;2024-01-15T09:22:56;6.22;;;2.90;;
59756;SDS011;45631;51.962;5.974;2024-01-15T09:25:25;5.93;;;2.63;;
59756;SDS011;45631;51.962;5.974;2024-01-15T09:27:53;6.28;;;2.90;;
59756;SDS011;45631;51.962;5.974;2024-01-15T09:30:21;11.10;;;3.70;;
59756;SDS011;45631;51.962;5.974;2024-01-15T09:32:49;7.63;;;3.00;;
59756;SDS011;45631;51.962;5.974;2024-01-15T09:35:19;7.38;;;3.47;;
59756;SDS011;45631;51.962;5.974;2024-01-15T09:40:18;8.68;;;2.95;;
59756;SDS011;45631;51.962;5.974;2024-01-15T09:42:48;7.13;;;3.03;;
59756;SDS011;45631;51.962;5.974;2024-01-15T09:45:18;6.65;;;2.85;;
59756;SDS011;45631;51.962;5.974;2024-01-15T09:47:47;8.00;;;3.03;;
59756;SDS011;45631;51.962;5.974;2024-01-15T09:50:15;8.40;;;3.05;;
59756;SDS011;45631;51.962;5.974;2024-01-15T09:52:45;8.32;;;3.22;;
59756;SDS011;45631;51.962;5.974;2024-01-15T09:55:14;6.55;;;2.30;;
59756;SDS011;45631;51.962;5.974;2024-01-15T09:57:43;7.78;;;2.17;;
59756;SDS011;45631;51.962;5.974;2024-01-15T10:00:13;8.57;;;1.95;;
59756;SDS011;45631;51.962;5.974;2024-01-15T10:02:45;7.28;;;1.92;;
59756;SDS011;45631;51.962;5.974;2024-01-15T10:05:13;5.97;;;1.70;;
59756;SDS011;45631;51.962;5.974;2024-01-15T10:07:42;3.92;;;1.45;;
59756;SDS011;45631;51.962;5.974;2024-01-15T10:10:14;5.32;;;1.65;;
59756;SDS011;45631;51.962;5.974;2024-01-15T10:12:42;3.50;;;1.30;;
59756;SDS011;45631;51.962;5.974;2024-01-15T10:15:10;4.00;;;1.40;;
59756;SDS011;45631;51.962;5.974;2024-01-15T10:17:40;3.85;;;1.30;;
59756;SDS011;45631;51.962;5.974;2024-01-15T10:20:09;5.60;;;1.48;;
59756;SDS011;45631;51.962;5.974;2024-01-15T10:22:39;2.90;;;1.02;;
59756;SDS011;45631;51.962;5.974;2024-01-15T10:25:10;3.67;;;1.00;;
59756;SDS011;45631;51.962;5.974;2024-01-15T10:27:40;5.65;;;1.10;;
59756;SDS011;45631;51.962;5.974;2024-01-15T10:30:09;3.33;;;1.10;;
59756;SDS011;45631;51.962;5.974;2024-01-15T10:32:40;9.05;;;1.50;;
59756;SDS011;45631;51.962;5.974;2024-01-15T10:35:08;4.38;;;1.40;;
59756;SDS011;45631;51.962;5.974;2024-01-15T10:37:37;6.25;;;1.50;;
59756;SDS011;45631;51.962;5.974;2024-01-15T10:40:06;4.25;;;1.20;;
59756;SDS011;45631;51.962;5.974;2024-01-15T10:42:34;5.38;;;1.20;;
59756;SDS011;45631;51.962;5.974;2024-01-15T10:45:04;5.68;;;1.33;;
59756;SDS011;45631;51.962;5.974;2024-01-15T10:47:35;6.57;;;1.52;;
59756;SDS011;45631;51.962;5.974;2024-01-15T10:50:04;8.00;;;1.90;;
59756;SDS011;45631;51.962;5.974;2024-01-15T10:52:34;6.13;;;2.00;;
59756;SDS011;45631;51.962;5.974;2024-01-15T10:55:03;5.40;;;2.42;;
59756;SDS011;45631;51.962;5.974;2024-01-15T10:57:39;8.18;;;2.67;;
59756;SDS011;45631;51.962;5.974;2024-01-15T11:00:09;6.90;;;3.03;;
59756;SDS011;45631;51.962;5.974;2024-01-15T11:02:41;7.43;;;3.55;;
59756;SDS011;45631;51.962;5.974;2024-01-15T11:05:11;7.40;;;3.80;;
59756;SDS011;45631;51.962;5.974;2024-01-15T11:07:40;9.00;;;4.18;;
59756;SDS011;45631;51.962;5.974;2024-01-15T11:10:10;9.40;;;4.13;;
59756;SDS011;45631;51.962;5.974;2024-01-15T11:13:09;8.07;;;3.60;;
59756;SDS011;45631;51.962;5.974;2024-01-15T11:15:59;8.48;;;3.30;;
59756;SDS011;45631;51.962;5.974;2024-01-15T11:18:29;8.75;;;3.38;;
59756;SDS011;45631;51.962;5.974;2024-01-15T11:23:48;7.95;;;3.22;;
59756;SDS011;45631;51.962;5.974;2024-01-15T11:26:36;6.35;;;2.80;;
59756;SDS011;45631;51.962;5.974;2024-01-15T11:29:05;7.70;;;2.78;;
59756;SDS011;45631;51.962;5.974;2024-01-15T11:37:29;9.38;;;2.97;;
59756;SDS011;45631;51.962;5.974;2024-01-15T11:40:38;8.07;;;2.40;;
59756;SDS011;45631;51.962;5.974;2024-01-15T11:43:09;6.88;;;2.30;;
59756;SDS011;45631;51.962;5.974;2024-01-15T11:45:39;7.78;;;2.42;;
59756;SDS011;45631;51.962;5.974;2024-01-15T11:48:10;9.32;;;2.40;;
59756;SDS011;45631;51.962;5.974;2024-01-15T11:50:41;10.18;;;2.45;;
59756;SDS011;45631;51.962;5.974;2024-01-15T11:53:13;11.40;;;2.00;;
59756;SDS011;45631;51.962;5.974;2024-01-15T11:55:46;8.82;;;1.85;;
59756;SDS011;45631;51.962;5.974;2024-01-15T11:58:15;5.97;;;2.10;;
59756;SDS011;45631;51.962;5.974;2024-01-15T12:00:44;7.18;;;1.90;;
59756;SDS011;45631;51.962;5.974;2024-01-15T12:03:21;8.32;;;2.03;;
59756;SDS011;45631;51.962;5.974;2024-01-15T12:05:50;7.57;;;1.97;;
59756;SDS011;45631;51.962;5.974;2024-01-15T12:08:21;5.75;;;1.35;;
59756;SDS011;45631;51.962;5.974;2024-01-15T12:10:50;9.63;;;1.83;;
59756;SDS011;45631;51.962;5.974;2024-01-15T12:13:18;8.27;;;1.50;;
59756;SDS011;45631;51.962;5.974;2024-01-15T12:15:48;8.15;;;1.75;;
59756;SDS011;45631;51.962;5.974;2024-01-15T12:18:17;7.13;;;1.48;;
59756;SDS011;45631;51.962;5.974;2024-01-15T12:20:48;5.90;;;1.30;;
59756;SDS011;45631;51.962;5.974;2024-01-15T12:23:16;6.60;;;1.65;;
59756;SDS011;45631;51.962;5.974;2024-01-15T12:25:45;7.97;;;1.55;;
59756;SDS011;45631;51.962;5.974;2024-01-15T12:28:14;7.82;;;1.45;;
59756;SDS011;45631;51.962;5.974;2024-01-15T12:30:46;6.88;;;1.58;;
59756;SDS011;45631;51.962;5.974;2024-01-15T12:33:17;7.25;;;1.58;;
59756;SDS011;45631;51.962;5.974;2024-01-15T12:35:48;7.82;;;1.83;;
59756;SDS011;45631;51.962;5.974;2024-01-15T12:38:20;8.77;;;1.90;;
59756;SDS011;45631;51.962;5.974;2024-01-15T12:40:51;4.35;;;1.20;;
59756;SDS011;45631;51.962;5.974;2024-01-15T12:43:19;10.13;;;2.28;;
59756;SDS011;45631;51.962;5.974;2024-01-15T12:45:47;6.13;;;1.70;;
59756;SDS011;45631;51.962;5.974;2024-01-15T12:48:16;6.63;;;1.30;;
59756;SDS011;45631;51.962;5.974;2024-01-15T12:50:45;9.00;;;1.35;;
59756;SDS011;45631;51.962;5.974;2024-01-15T12:53:15;7.90;;;1.70;;
59756;SDS011;45631;51.962;5.974;2024-01-15T12:55:44;5.03;;;1.10;;
59756;SDS011;45631;51.962;5.974;2024-01-15T12:58:12;3.88;;;0.98;;
59756;SDS011;45631;51.962;5.974;2024-01-15T13:00:44;6.65;;;1.40;;
59756;SDS011;45631;51.962;5.974;2024-01-15T13:03:13;4.72;;;1.33;;
59756;SDS011;45631;51.962;5.974;2024-01-15T13:05:42;7.20;;;1.90;;
59756;SDS011;45631;51.962;5.974;2024-01-15T13:08:11;4.75;;;1.20;;
59756;SDS011;45631;51.962;5.974;2024-01-15T13:10:41;7.80;;;1.77;;
59756;SDS011;45631;51.962;5.974;2024-01-15T13:13:09;4.80;;;1.58;;
59756;SDS011;45631;51.962;5.974;2024-01-15T13:15:37;8.38;;;1.27;;
59756;SDS011;45631;51.962;5.974;2024-01-15T13:18:07;5.85;;;1.10;;
59756;SDS011;45631;51.962;5.974;2024-01-15T13:20:37;4.60;;;1.13;;
59756;SDS011;45631;51.962;5.974;2024-01-15T13:23:05;6.65;;;1.38;;
59756;SDS011;45631;51.962;5.974;2024-01-15T13:25:33;3.80;;;0.90;;
59756;SDS011;45631;51.962;5.974;2024-01-15T13:28:06;3.97;;;1.05;;
59756;SDS011;45631;51.962;5.974;2024-01-15T13:30:35;7.75;;;1.00;;
59756;SDS011;45631;51.962;5.974;2024-01-15T13:33:04;4.82;;;1.05;;
59756;SDS011;45631;51.962;5.974;2024-01-15T13:35:32;4.53;;;0.95;;
59756;SDS011;45631;51.962;5.974;2024-01-15T13:38:02;5.07;;;1.33;;
59756;SDS011;45631;51.962;5.974;2024-01-15T13:40:31;7.88;;;1.02;;
59756;SDS011;45631;51.962;5.974;2024-01-15T13:42:59;3.30;;;0.80;;
59756;SDS011;45631;51.962;5.974;2024-01-15T13:45:28;10.10;;;1.10;;
59756;SDS011;45631;51.962;5.974;2024-01-15T13:47:57;3.30;;;0.93;;
59756;SDS011;45631;51.962;5.974;2024-01-15T13:50:25;5.45;;;1.48;;
59756;SDS011;45631;51.962;5.974;2024-01-15T13:52:55;4.53;;;0.88;;
59756;SDS011;45631;51.962;5.974;2024-01-15T13:55:23;4.45;;;1.15;;
59756;SDS011;45631;51.962;5.974;2024-01-15T13:57:51;5.82;;;1.35;;
59756;SDS011;45631;51.962;5.974;2024-01-15T14:00:20;4.13;;;1.52;;
59756;SDS011;45631;51.962;5.974;2024-01-15T14:02:51;7.18;;;1.60;;
59756;SDS011;45631;51.962;5.974;2024-01-15T14:05:22;6.13;;;1.13;;
59756;SDS011;45631;51.962;5.974;2024-01-15T14:07:50;8.35;;;1.80;;
59756;SDS011;45631;51.962;5.974;2024-01-15T14:10:18;6.05;;;1.13;;
59756;SDS011;45631;51.962;5.974;2024-01-15T14:12:46;6.05;;;1.10;;
59756;SDS011;45631;51.962;5.974;2024-01-15T14:15:15;4.15;;;1.08;;
59756;SDS011;45631;51.962;5.974;2024-01-15T14:17:43;6.78;;;1.58;;
59756;SDS011;45631;51.962;5.974;2024-01-15T14:20:13;5.25;;;1.23;;
59756;SDS011;45631;51.962;5.974;2024-01-15T14:22:44;6.38;;;1.20;;
59756;SDS011;45631;51.962;5.974;2024-01-15T14:25:12;6.97;;;1.00;;
59756;SDS011;45631;51.962;5.974;2024-01-15T14:27:40;9.30;;;1.25;;
59756;SDS011;45631;51.962;5.974;2024-01-15T14:30:09;7.32;;;1.52;;
59756;SDS011;45631;51.962;5.974;2024-01-15T14:32:39;8.10;;;1.95;;
59756;SDS011;45631;51.962;5.974;2024-01-15T14:35:08;8.40;;;1.13;;
59756;SDS011;45631;51.962;5.974;2024-01-15T14:37:38;9.18;;;1.40;;
59756;SDS011;45631;51.962;5.974;2024-01-15T14:40:07;5.15;;;1.17;;
59756;SDS011;45631;51.962;5.974;2024-01-15T14:42:36;6.53;;;1.15;;
59756;SDS011;45631;51.962;5.974;2024-01-15T14:45:05;6.22;;;1.35;;
59756;SDS011;45631;51.962;5.974;2024-01-15T14:47:39;7.72;;;1.63;;
59756;SDS011;45631;51.962;5.974;2024-01-15T14:50:08;7.57;;;1.40;;
59756;SDS011;45631;51.962;5.974;2024-01-15T14:52:38;9.05;;;1.75;;
59756;SDS011;45631;51.962;5.974;2024-01-15T14:55:08;6.03;;;1.52;;
59756;SDS011;45631;51.962;5.974;2024-01-15T14:57:37;7.90;;;1.52;;
59756;SDS011;45631;51.962;5.974;2024-01-15T15:00:05;7.22;;;1.25;;
59756;SDS011;45631;51.962;5.974;2024-01-15T15:02:35;8.00;;;1.85;;
59756;SDS011;45631;51.962;5.974;2024-01-15T15:05:04;6.70;;;1.50;;
59756;SDS011;45631;51.962;5.974;2024-01-15T15:07:33;7.82;;;2.17;;
59756;SDS011;45631;51.962;5.974;2024-01-15T15:10:05;5.47;;;1.98;;